createdAt,value
2022-11-24T00:01:35.094Z,5.30
2022-11-24T00:04:08.365Z,5.40
2022-11-24T00:06:39.195Z,5.30
2022-11-24T00:09:09.955Z,5.20
2022-11-24T00:11:40.743Z,5.10
2022-11-24T00:14:14.009Z,5.00
2022-11-24T00:16:44.162Z,5.10
2022-11-24T00:19:19.457Z,5.20
2022-11-24T00:21:49.885Z,5.40
2022-11-24T00:24:20.165Z,5.60
2022-11-24T00:26:50.211Z,5.70
2022-11-24T00:29:23.087Z,5.80
2022-11-24T00:31:53.237Z,5.90
2022-11-24T00:34:23.347Z,6.00
2022-11-24T00:36:53.696Z,6.00
2022-11-24T00:39:23.784Z,6.00
2022-11-24T00:41:53.874Z,6.10
2022-11-24T00:44:26.582Z,6.10
2022-11-24T00:46:56.715Z,6.10
2022-11-24T00:49:27.284Z,6.10
2022-11-24T00:51:57.347Z,6.20
2022-11-24T00:54:27.341Z,6.30
2022-11-24T00:56:57.353Z,6.30
2022-11-24T00:59:30.095Z,6.40
2022-11-24T01:02:00.303Z,6.40
2022-11-24T01:04:30.384Z,6.40
2022-11-24T01:07:00.417Z,6.40
2022-11-24T01:09:30.474Z,6.40
2022-11-24T01:12:06.331Z,6.30
2022-11-24T01:14:39.252Z,6.30
2022-11-24T01:17:09.327Z,6.10
2022-11-24T01:19:39.451Z,6.00
2022-11-24T01:22:09.839Z,5.80
2022-11-24T01:24:39.877Z,5.80
2022-11-24T01:27:10.208Z,5.70
2022-11-24T01:29:43.038Z,5.60
2022-11-24T01:32:13.106Z,5.60
2022-11-24T01:34:43.100Z,5.40
2022-11-24T01:37:13.209Z,5.40
2022-11-24T01:39:43.566Z,5.50
2022-11-24T01:42:13.857Z,5.50
2022-11-24T01:44:46.583Z,5.40
2022-11-24T01:47:36.753Z,5.30
2022-11-24T01:50:13.110Z,5.10
2022-11-24T01:52:51.943Z,5.10
2022-11-24T01:55:30.035Z,5.20
2022-11-24T01:58:07.543Z,5.30
2022-11-24T02:00:43.521Z,5.50
2022-11-24T02:03:17.527Z,5.40
2022-11-24T02:05:54.354Z,5.40
2022-11-24T02:08:34.517Z,5.60
2022-11-24T02:11:08.254Z,5.60
2022-11-24T02:13:42.447Z,5.60
2022-11-24T02:16:15.672Z,5.70
2022-11-24T02:18:48.198Z,5.70
2022-11-24T02:21:19.713Z,5.90
2022-11-24T02:23:59.968Z,5.90
2022-11-24T02:26:43.107Z,6.00
2022-11-24T02:29:15.322Z,5.90
2022-11-24T02:31:52.079Z,5.80
2022-11-24T02:34:22.255Z,5.70
2022-11-24T02:36:52.319Z,5.70
2022-11-24T02:39:22.793Z,5.50
2022-11-24T02:42:00.319Z,5.40
2022-11-24T02:44:39.338Z,5.40
2022-11-24T02:47:13.374Z,5.30
2022-11-24T02:49:44.138Z,5.30
2022-11-24T02:52:14.205Z,5.20
2022-11-24T02:54:44.401Z,5.20
2022-11-24T02:57:17.775Z,5.10
2022-11-24T02:59:47.973Z,5.00
2022-11-24T03:02:18.074Z,4.90
2022-11-24T03:04:48.168Z,4.90
2022-11-24T03:07:18.468Z,4.80
2022-11-24T03:09:48.834Z,4.80
2022-11-24T03:12:21.600Z,4.70
2022-11-24T03:14:51.868Z,4.60
2022-11-24T03:17:21.920Z,4.60
2022-11-24T03:19:52.264Z,4.60
2022-11-24T03:22:22.408Z,4.70
2022-11-24T03:24:53.369Z,4.60
2022-11-24T03:27:26.014Z,4.50
2022-11-24T03:29:56.053Z,4.50
2022-11-24T03:32:26.268Z,4.60
2022-11-24T03:34:56.312Z,4.60
2022-11-24T03:37:26.361Z,4.60
2022-11-24T03:39:56.397Z,4.50
2022-11-24T03:42:29.220Z,4.50
2022-11-24T03:45:04.268Z,4.50
2022-11-24T03:47:47.041Z,4.50
2022-11-24T03:50:17.290Z,4.50
2022-11-24T03:52:47.397Z,4.60
2022-11-24T03:55:18.143Z,4.70
2022-11-24T03:57:50.797Z,4.80
2022-11-24T04:00:21.557Z,4.80
2022-11-24T04:02:51.686Z,5.00
2022-11-24T04:05:22.061Z,4.80
2022-11-24T04:07:52.118Z,4.80
2022-11-24T04:10:22.169Z,4.70
2022-11-24T04:12:52.189Z,4.70
2022-11-24T04:15:23.802Z,4.70
2022-11-24T04:17:54.184Z,4.50
2022-11-24T04:20:25.101Z,4.40
2022-11-24T04:22:55.443Z,4.20
2022-11-24T04:25:25.849Z,4.10
2022-11-24T04:27:59.490Z,4.10
2022-11-24T04:30:31.429Z,4.20
2022-11-24T04:33:01.714Z,4.20
2022-11-24T04:35:31.766Z,4.30
2022-11-24T04:38:05.749Z,4.40
2022-11-24T04:40:36.853Z,4.40
2022-11-24T04:43:09.424Z,4.50
2022-11-24T04:45:39.767Z,4.50
2022-11-24T04:48:10.977Z,4.70
2022-11-24T04:50:41.920Z,4.80
2022-11-24T04:53:13.862Z,4.80
2022-11-24T04:55:44.423Z,4.80
2022-11-24T04:58:17.683Z,4.80
2022-11-24T05:00:47.750Z,4.80
2022-11-24T05:03:17.816Z,4.70
2022-11-24T05:05:47.852Z,4.80
2022-11-24T05:08:18.171Z,4.80
2022-11-24T05:10:45.585Z,5.00
2022-11-24T05:13:18.357Z,5.10
2022-11-24T05:15:48.414Z,4.90
2022-11-24T05:18:18.493Z,4.60
2022-11-24T05:20:49.622Z,4.40
2022-11-24T05:23:20.263Z,4.30
2022-11-24T05:25:50.271Z,4.20
2022-11-24T05:28:22.986Z,4.10
2022-11-24T05:30:53.076Z,4.20
2022-11-24T05:33:23.368Z,4.10
2022-11-24T05:35:53.730Z,4.00
2022-11-24T05:38:24.816Z,3.90
2022-11-24T05:40:55.136Z,3.60
2022-11-24T05:43:27.723Z,3.50
2022-11-24T05:45:57.790Z,3.70
2022-11-24T05:48:28.026Z,3.80
2022-11-24T05:50:59.405Z,3.80
2022-11-24T05:53:29.544Z,3.90
2022-11-24T05:55:59.704Z,3.90
2022-11-24T05:58:32.484Z,4.00
2022-11-24T06:01:02.797Z,4.00
2022-11-24T06:03:32.850Z,4.00
2022-11-24T06:06:03.253Z,4.10
2022-11-24T06:08:33.909Z,4.30
2022-11-24T06:11:17.337Z,4.30
2022-11-24T06:13:51.278Z,4.40
2022-11-24T06:16:21.533Z,4.40
2022-11-24T06:18:51.663Z,4.60
2022-11-24T06:21:21.744Z,4.70
2022-11-24T06:23:52.285Z,5.20
2022-11-24T06:26:22.707Z,5.50
2022-11-24T06:28:55.308Z,5.70
2022-11-24T06:31:25.735Z,5.70
2022-11-24T06:33:55.831Z,5.50
2022-11-24T06:36:25.875Z,5.40
2022-11-24T06:38:56.279Z,5.40
2022-11-24T06:41:26.301Z,5.50
2022-11-24T06:43:59.207Z,5.50
2022-11-24T06:46:29.281Z,5.60
2022-11-24T06:48:59.692Z,5.60
2022-11-24T06:51:30.281Z,5.60
2022-11-24T06:54:00.440Z,5.70
2022-11-24T06:56:30.540Z,5.80
2022-11-24T06:59:04.101Z,5.80
2022-11-24T07:01:34.485Z,5.90
2022-11-24T07:04:04.583Z,5.90
2022-11-24T07:06:34.788Z,6.00
2022-11-24T07:09:04.824Z,6.00
2022-11-24T07:11:34.886Z,6.00
2022-11-24T07:14:07.892Z,6.10
2022-11-24T07:16:38.634Z,6.20
2022-11-24T07:19:08.610Z,6.20
2022-11-24T07:21:38.633Z,6.30
2022-11-24T07:24:09.978Z,6.30
2022-11-24T07:26:40.364Z,6.40
2022-11-24T07:29:12.968Z,6.40
2022-11-24T07:31:43.085Z,6.50
2022-11-24T07:34:14.736Z,6.60
2022-11-24T07:36:45.413Z,6.70
2022-11-24T07:39:15.394Z,6.80
2022-11-24T07:41:45.422Z,6.80
2022-11-24T07:44:18.098Z,6.80
2022-11-24T07:46:50.243Z,6.80
2022-11-24T07:49:20.500Z,6.80
2022-11-24T07:51:50.608Z,6.80
2022-11-24T07:54:20.622Z,6.80
2022-11-24T07:56:51.386Z,6.60
2022-11-24T07:59:23.960Z,6.70
2022-11-24T08:01:53.986Z,6.70
2022-11-24T08:04:24.169Z,6.70
2022-11-24T08:06:54.164Z,6.80
2022-11-24T08:09:24.473Z,6.90
2022-11-24T08:11:54.521Z,7.00
2022-11-24T08:14:27.749Z,7.00
2022-11-24T08:16:58.162Z,7.00
2022-11-24T08:19:28.210Z,7.00
2022-11-24T08:21:58.219Z,7.10
2022-11-24T08:24:29.944Z,7.10
2022-11-24T08:27:00.028Z,7.10
2022-11-24T08:29:35.013Z,7.10
2022-11-24T08:32:05.103Z,7.20
2022-11-24T08:34:35.374Z,7.30
2022-11-24T08:37:07.072Z,7.30
2022-11-24T08:39:38.661Z,7.50
2022-11-24T08:42:08.792Z,7.50
2022-11-24T08:44:41.627Z,7.60
2022-11-24T08:47:11.765Z,7.70
2022-11-24T08:49:41.841Z,7.70
2022-11-24T08:52:11.898Z,7.90
2022-11-24T08:54:44.410Z,7.90
2022-11-24T08:57:21.638Z,7.90
2022-11-24T08:59:54.852Z,7.90
2022-11-24T09:02:24.878Z,7.80
2022-11-24T09:04:54.830Z,7.70
2022-11-24T09:07:25.074Z,7.60
2022-11-24T09:09:55.144Z,7.70
2022-11-24T09:12:25.153Z,7.70
2022-11-24T09:14:57.709Z,7.70
2022-11-24T09:17:27.719Z,7.70
2022-11-24T09:19:57.887Z,7.80
2022-11-24T09:22:27.954Z,7.80
2022-11-24T09:24:57.983Z,7.70
2022-11-24T09:27:28.150Z,7.80
2022-11-24T09:30:00.838Z,8.00
2022-11-24T09:32:32.448Z,8.10
2022-11-24T09:35:02.578Z,8.10
2022-11-24T09:37:34.966Z,8.20
2022-11-24T09:40:05.033Z,8.20
2022-11-24T09:42:50.670Z,8.30
2022-11-24T09:48:13.780Z,8.50
2022-11-24T09:50:46.368Z,8.50
2022-11-24T09:53:25.766Z,8.30
2022-11-24T09:56:01.509Z,8.20
2022-11-24T10:01:34.449Z,8.20
2022-11-24T10:04:06.826Z,8.10
2022-11-24T10:06:47.051Z,8.00
2022-11-24T10:09:59.572Z,8.20
2022-11-24T10:12:52.630Z,8.50
2022-11-24T10:25:16.812Z,8.50
2022-11-24T10:28:16.106Z,8.60
2022-11-24T10:30:47.775Z,8.70
2022-11-24T10:39:32.566Z,9.30
2022-11-24T10:45:14.483Z,9.30
2022-11-24T10:48:42.504Z,9.50
2022-11-24T11:06:14.497Z,10.50
2022-11-24T11:08:44.503Z,10.50
2022-11-24T11:11:25.356Z,10.20
2022-11-24T11:14:03.951Z,10.50
2022-11-24T11:19:54.233Z,10.50
2022-11-24T11:22:44.119Z,10.40
2022-11-24T11:25:29.376Z,10.20
2022-11-24T11:31:23.807Z,10.00
2022-11-24T11:34:03.426Z,10.00
2022-11-24T11:36:36.124Z,9.80
2022-11-24T11:39:07.349Z,9.50
2022-11-24T11:41:59.398Z,9.30
2022-11-24T11:50:04.801Z,9.30
2022-11-24T11:53:08.183Z,9.40
2022-11-24T11:56:00.316Z,9.60
2022-11-24T11:59:07.042Z,9.70
2022-11-24T12:02:05.786Z,9.70
2022-11-24T12:10:44.680Z,9.70
2022-11-24T12:16:31.103Z,9.90
2022-11-24T12:19:21.052Z,10.00
2022-11-24T12:22:17.559Z,10.10
2022-11-24T12:27:49.450Z,10.20
2022-11-24T12:30:37.451Z,10.30
2022-11-24T12:36:04.865Z,10.40
2022-11-24T12:42:03.930Z,10.90
2022-11-24T12:47:46.709Z,11.00
2022-11-24T12:50:22.549Z,11.50
2022-11-24T12:55:53.516Z,11.90
2022-11-24T12:58:34.302Z,12.10
2022-11-24T13:01:38.303Z,12.30
2022-11-24T13:06:57.314Z,12.50
2022-11-24T13:09:27.333Z,12.80
2022-11-24T13:12:11.189Z,12.60
2022-11-24T13:14:46.128Z,12.20
2022-11-24T13:20:33.343Z,12.00
2022-11-24T13:23:09.522Z,11.80
2022-11-24T13:25:56.248Z,11.40
2022-11-24T13:31:26.480Z,10.80
2022-11-24T13:33:56.629Z,10.10
2022-11-24T13:39:51.705Z,9.70
2022-11-24T13:42:42.679Z,9.70
2022-11-24T13:47:57.656Z,9.60
2022-11-24T13:51:11.712Z,9.70
2022-11-24T13:53:49.002Z,10.00
2022-11-24T13:56:31.264Z,10.30
2022-11-24T14:02:24.340Z,10.70
2022-11-24T14:07:56.756Z,10.70
2022-11-24T14:10:35.369Z,10.70
2022-11-24T14:13:44.916Z,10.70
2022-11-24T14:16:21.970Z,10.80
2022-11-24T14:18:54.398Z,10.80
2022-11-24T14:21:32.970Z,10.90
2022-11-24T14:27:20.282Z,10.90
2022-11-24T14:29:59.087Z,10.90
2022-11-24T14:35:27.053Z,10.70
2022-11-24T14:40:46.204Z,10.30
2022-11-24T14:43:23.930Z,9.80
2022-11-24T14:45:58.502Z,9.60
2022-11-24T14:48:31.524Z,9.40
2022-11-24T14:56:42.205Z,9.10
2022-11-24T14:59:26.064Z,9.30
2022-11-24T15:01:56.883Z,9.50
2022-11-24T15:10:04.959Z,9.80
2022-11-24T15:12:40.770Z,9.90
2022-11-24T15:15:23.005Z,9.90
2022-11-24T15:23:30.723Z,9.90
2022-11-24T15:31:53.013Z,9.80
2022-11-24T15:34:23.418Z,9.60
2022-11-24T15:36:53.449Z,9.50
2022-11-24T15:39:23.588Z,9.50
2022-11-24T15:41:53.863Z,9.30
2022-11-24T15:44:23.875Z,9.10
2022-11-24T15:46:56.748Z,9.00
2022-11-24T15:49:26.813Z,8.70
2022-11-24T15:51:56.904Z,8.60
2022-11-24T15:57:13.630Z,8.20
2022-11-24T15:59:43.687Z,8.10
2022-11-24T16:05:18.658Z,7.70
2022-11-24T16:07:48.855Z,7.40
2022-11-24T16:10:28.851Z,7.00
2022-11-24T16:12:59.122Z,6.90
2022-11-24T16:15:29.348Z,6.70
2022-11-24T16:17:59.440Z,6.50
2022-11-24T16:20:35.011Z,6.40
2022-11-24T16:23:05.945Z,6.10
2022-11-24T16:25:36.121Z,5.90
2022-11-24T16:28:06.555Z,5.80
2022-11-24T16:30:36.606Z,5.60
2022-11-24T16:33:07.297Z,5.50
2022-11-24T16:35:40.051Z,5.30
2022-11-24T16:38:12.761Z,5.30
2022-11-24T16:40:43.017Z,5.20
2022-11-24T16:43:13.426Z,5.20
2022-11-24T16:45:45.594Z,5.10
2022-11-24T16:48:15.882Z,5.10
2022-11-24T16:50:48.622Z,5.10
2022-11-24T16:53:18.674Z,5.00
2022-11-24T16:56:00.370Z,4.90
2022-11-24T16:58:30.807Z,4.80
2022-11-24T17:01:06.636Z,4.70
2022-11-24T17:03:38.148Z,4.60
2022-11-24T17:06:15.772Z,4.50
2022-11-24T17:08:48.385Z,4.50
2022-11-24T17:11:21.047Z,4.50
2022-11-24T17:13:51.842Z,4.50
2022-11-24T17:16:24.115Z,4.60
2022-11-24T17:18:54.863Z,4.50
2022-11-24T17:21:29.950Z,4.50
2022-11-24T17:24:02.698Z,4.50
2022-11-24T17:26:32.689Z,4.50
2022-11-24T17:29:02.753Z,4.40
2022-11-24T17:31:35.904Z,4.40
2022-11-24T17:34:08.806Z,4.40
2022-11-24T17:36:44.745Z,4.40
2022-11-24T17:39:15.785Z,4.40
2022-11-24T17:41:48.123Z,4.40
2022-11-24T17:44:18.233Z,4.30
2022-11-24T17:46:48.483Z,4.30
2022-11-24T17:49:18.472Z,4.40
2022-11-24T17:51:51.131Z,4.30
2022-11-24T17:54:56.513Z,4.20
2022-11-24T17:57:11.722Z,4.20
2022-11-24T17:59:41.754Z,4.10
2022-11-24T18:02:12.781Z,4.00
2022-11-24T18:04:42.910Z,3.70
2022-11-24T18:07:15.750Z,3.60
2022-11-24T18:09:46.120Z,3.50
2022-11-24T18:12:16.325Z,3.50
2022-11-24T18:14:46.337Z,3.50
2022-11-24T18:17:16.419Z,3.50
2022-11-24T18:19:46.367Z,3.60
2022-11-24T18:22:36.617Z,3.70
2022-11-24T18:25:10.531Z,3.60
2022-11-24T18:27:41.487Z,3.60
2022-11-24T18:30:12.647Z,3.50
2022-11-24T18:32:42.747Z,3.40
2022-11-24T18:35:13.495Z,3.40
2022-11-24T18:37:46.209Z,3.30
2022-11-24T18:40:16.753Z,3.30
2022-11-24T18:42:46.747Z,3.20
2022-11-24T18:45:16.832Z,3.20
2022-11-24T18:47:46.865Z,3.20
2022-11-24T18:50:17.352Z,3.00
2022-11-24T18:52:50.062Z,3.10
2022-11-24T18:55:20.225Z,3.20
2022-11-24T18:57:50.262Z,3.10
2022-11-24T19:00:20.960Z,3.10
2022-11-24T19:02:53.782Z,3.00
2022-11-24T19:05:24.021Z,3.00
2022-11-24T19:07:56.746Z,3.00
2022-11-24T19:10:26.798Z,2.90
2022-11-24T19:12:59.161Z,2.90
2022-11-24T19:15:32.637Z,2.80
2022-11-24T19:18:03.619Z,2.80
2022-11-24T19:20:33.691Z,2.80
2022-11-24T19:23:06.333Z,2.80
2022-11-24T19:25:36.351Z,2.80
2022-11-24T19:28:09.130Z,2.80
2022-11-24T19:30:39.421Z,2.80
2022-11-24T19:33:11.188Z,2.80
2022-11-24T19:35:41.247Z,2.80
2022-11-24T19:38:15.271Z,2.80
2022-11-24T19:40:45.457Z,2.70
2022-11-24T19:43:15.476Z,2.80
2022-11-24T19:45:45.738Z,2.70
2022-11-24T19:48:16.070Z,2.70
2022-11-24T19:50:46.393Z,2.60
2022-11-24T19:53:18.995Z,2.50
2022-11-24T19:55:48.996Z,2.50
2022-11-24T19:58:19.067Z,2.50
2022-11-24T20:00:49.369Z,2.50
2022-11-24T20:03:19.649Z,2.40
2022-11-24T20:05:58.028Z,2.50
2022-11-24T20:08:32.281Z,2.40
2022-11-24T20:11:06.584Z,2.30
2022-11-24T20:13:38.678Z,2.30
2022-11-24T20:16:12.156Z,2.30
2022-11-24T20:18:45.261Z,2.30
2022-11-24T20:21:18.134Z,2.30
2022-11-24T20:23:56.894Z,2.30
2022-11-24T20:26:31.623Z,2.00
2022-11-24T20:29:04.115Z,2.00
2022-11-24T20:31:37.659Z,2.00
2022-11-24T20:34:10.046Z,2.10
2022-11-24T20:36:42.705Z,2.10
2022-11-24T20:39:20.472Z,2.10
2022-11-24T20:41:50.819Z,2.10
2022-11-24T20:44:24.955Z,2.10
2022-11-24T20:46:59.821Z,2.20
2022-11-24T20:49:31.105Z,2.20
2022-11-24T20:52:01.842Z,2.20
2022-11-24T20:54:35.110Z,2.10
2022-11-24T20:57:05.541Z,2.20
2022-11-24T20:59:35.839Z,2.20
2022-11-24T21:02:06.058Z,2.10
2022-11-24T21:04:36.943Z,1.90
2022-11-24T21:07:07.695Z,1.90
2022-11-24T21:09:40.495Z,1.90
2022-11-24T21:12:11.042Z,1.80
2022-11-24T21:14:41.677Z,1.90
2022-11-24T21:17:12.572Z,1.90
2022-11-24T21:19:42.664Z,2.00
2022-11-24T21:22:12.819Z,1.90
2022-11-24T21:24:45.526Z,1.80
2022-11-24T21:27:15.610Z,1.70
2022-11-24T21:29:45.643Z,1.90
2022-11-24T21:32:15.698Z,2.00
2022-11-24T21:34:45.759Z,2.10
2022-11-24T21:37:15.863Z,2.10
2022-11-24T21:39:49.745Z,2.00
2022-11-24T21:42:19.754Z,1.80
2022-11-24T21:44:49.804Z,1.70
2022-11-24T21:47:19.808Z,1.70
2022-11-24T21:49:49.781Z,1.90
2022-11-24T21:52:19.829Z,2.00
2022-11-24T21:54:52.436Z,2.10
2022-11-24T21:57:23.173Z,2.20
2022-11-24T21:59:53.158Z,2.40
2022-11-24T22:02:23.224Z,2.50
2022-11-24T22:04:53.511Z,2.40
2022-11-24T22:07:23.563Z,2.30
2022-11-24T22:09:56.249Z,2.10
2022-11-24T22:12:26.317Z,2.00
2022-11-24T22:14:56.309Z,2.20
2022-11-24T22:17:26.288Z,2.40
2022-11-24T22:19:56.284Z,2.40
2022-11-24T22:22:26.321Z,2.30
2022-11-24T22:24:58.896Z,2.30
2022-11-24T22:27:28.861Z,2.30
2022-11-24T22:29:58.907Z,2.10
2022-11-24T22:32:28.895Z,2.00
2022-11-24T22:34:58.898Z,1.80
2022-11-24T22:37:28.870Z,1.80
2022-11-24T22:40:01.496Z,1.90
2022-11-24T22:42:31.485Z,2.10
2022-11-24T22:45:01.570Z,2.10
2022-11-24T22:47:31.657Z,2.10
2022-11-24T22:50:01.884Z,2.10
2022-11-24T22:52:33.785Z,2.00
2022-11-24T22:55:06.888Z,2.00
2022-11-24T22:57:36.872Z,2.10
2022-11-24T23:00:08.487Z,2.10
2022-11-24T23:02:38.802Z,1.90
2022-11-24T23:05:09.831Z,1.70
2022-11-24T23:07:40.007Z,1.60
2022-11-24T23:10:14.439Z,1.60
2022-11-24T23:12:44.558Z,1.60
2022-11-24T23:15:14.810Z,1.80
2022-11-24T23:17:44.843Z,2.10
2022-11-24T23:20:17.221Z,2.10
2022-11-24T23:22:47.441Z,1.90
2022-11-24T23:25:20.187Z,1.70
2022-11-24T23:27:50.156Z,1.50
2022-11-24T23:30:20.449Z,1.30
2022-11-24T23:32:50.514Z,1.20
2022-11-24T23:35:20.756Z,1.10
2022-11-24T23:38:07.042Z,1.00
2022-11-24T23:40:40.274Z,1.00
2022-11-24T23:43:10.370Z,1.40
2022-11-24T23:45:40.448Z,1.60
2022-11-24T23:48:10.779Z,1.60
2022-11-24T23:50:41.867Z,1.50
2022-11-24T23:53:11.976Z,1.40
2022-11-24T23:55:44.569Z,1.50
2022-11-24T23:58:15.022Z,1.60
